Time;durP1;ratioP1;P1;durP2;ratioP2;P2;SDS_P1;SDS_P2;PMS_P1;PMS_P2;Temp;Humidity;BMP_temperature;BMP_pressure;BME280_temperature;BME280_humidity;BME280_pressure;Samples;Min_cycle;Max_cycle;Signal;HPM_P1;HPM_P2
2021/12/30 00:00:27;;;;;;;0.60;0.60;;;;;;;11.53;100.00;99386.47;5014015;28;20251;-84
2021/12/30 00:02:53;;;;;;;2.30;0.68;;;;;;;11.52;100.00;99391.03;5023836;28;20445;-82
2021/12/30 00:05:18;;;;;;;0.75;0.50;;;;;;;11.54;100.00;99399.72;5022267;28;20030;-83
2021/12/30 00:07:44;;;;;;;0.70;0.70;;;;;;;11.52;100.00;99391.03;4992929;28;20049;-83
2021/12/30 00:10:11;;;;;;;1.73;0.85;;;;;;;11.44;100.00;99378.66;5029100;28;20070;-82
2021/12/30 00:12:37;;;;;;;2.42;1.05;;;;;;;11.50;100.00;99389.59;4984321;28;20041;-84
2021/12/30 00:15:05;;;;;;;0.57;0.57;;;;;;;11.44;100.00;99389.41;5030086;28;20022;-84
2021/12/30 00:17:31;;;;;;;0.57;0.57;;;;;;;11.52;100.00;99395.59;5027295;28;20033;-84
2021/12/30 00:19:58;;;;;;;0.40;0.40;;;;;;;11.52;100.00;99404.50;5012946;28;20098;-83
2021/12/30 00:22:24;;;;;;;0.40;0.40;;;;;;;11.45;100.00;99399.13;4995315;28;20037;-81
2021/12/30 00:24:49;;;;;;;0.40;0.40;;;;;;;11.52;100.00;99392.91;5026377;28;20529;-86
2021/12/30 00:27:15;;;;;;;0.73;0.73;;;;;;;11.37;100.00;99364.38;5027312;28;20037;-84
2021/12/30 00:29:41;;;;;;;0.47;0.47;;;;;;;11.46;100.00;99373.06;5011287;28;20033;-83
2021/12/30 00:32:07;;;;;;;1.02;1.02;;;;;;;11.48;100.00;99386.28;4996480;28;20066;-83
2021/12/30 00:34:32;;;;;;;0.50;0.50;;;;;;;11.52;100.00;99395.59;5022986;28;20033;-83
2021/12/30 00:36:58;;;;;;;0.50;0.50;;;;;;;11.52;100.00;99401.78;5006606;28;20790;-85
2021/12/30 00:39:24;;;;;;;0.40;0.40;;;;;;;11.47;100.00;99392.72;5016937;28;20036;-82
2021/12/30 00:41:50;;;;;;;0.60;0.60;;;;;;;11.50;100.00;99389.59;4998122;28;20039;-82
2021/12/30 00:44:15;;;;;;;0.45;0.45;;;;;;;11.47;100.00;99373.88;5024458;28;20056;-84
2021/12/30 00:46:41;;;;;;;0.40;0.40;;;;;;;11.52;100.00;99382.13;5022327;28;20080;-83
2021/12/30 00:49:09;;;;;;;0.40;0.40;;;;;;;11.52;100.00;99390.22;5006980;28;20140;-84
2021/12/30 00:51:36;;;;;;;0.52;0.52;;;;;;;11.51;100.00;99386.69;5024110;28;20037;-84
2021/12/30 00:54:01;;;;;;;0.40;0.40;;;;;;;11.45;100.00;99380.28;5022670;28;20849;-84
2021/12/30 00:56:27;;;;;;;0.40;0.40;;;;;;;11.49;100.00;99396.03;5018190;28;20502;-84
2021/12/30 00:58:53;;;;;;;0.40;0.40;;;;;;;11.49;100.00;99401.41;5024642;28;20046;-83
2021/12/30 01:01:24;;;;;;;0.40;0.40;;;;;;;11.48;100.00;99411.31;5025956;28;20037;-83
2021/12/30 01:03:53;;;;;;;0.47;0.47;;;;;;;11.52;100.00;99422.50;5042854;28;20037;-84
2021/12/30 01:06:19;;;;;;;0.43;0.43;;;;;;;11.53;100.00;99426.84;5031496;28;20051;-84
2021/12/30 01:08:45;;;;;;;0.70;0.70;;;;;;;11.49;100.00;99410.31;5025171;28;20029;-83
2021/12/30 01:11:11;;;;;;;0.45;0.45;;;;;;;11.52;100.00;99409.06;5023082;28;20043;-84
2021/12/30 01:13:41;;;;;;;0.47;0.47;;;;;;;11.51;100.00;99410.06;5024908;28;20036;-84
2021/12/30 01:16:16;;;;;;;0.40;0.40;;;;;;;11.60;100.00;99409.63;5005656;28;20033;-84
2021/12/30 01:21:22;;;;;;;0.40;0.40;;;;;;;11.59;100.00;99417.91;5047984;28;20067;-84
2021/12/30 01:23:48;;;;;;;0.50;0.50;;;;;;;11.56;100.00;99412.94;5023503;28;20936;-83
2021/12/30 01:26:14;;;;;;;0.50;0.50;;;;;;;11.58;100.00;99416.25;5024963;28;20047;-84
2021/12/30 01:28:40;;;;;;;0.40;0.40;;;;;;;11.54;100.00;99410.50;5031043;28;20045;-83
2021/12/30 01:31:06;;;;;;;1.67;0.70;;;;;;;11.60;100.00;99424.94;5026441;28;20033;-83
2021/12/30 01:33:32;;;;;;;1.08;0.50;;;;;;;11.54;100.00;99409.66;5027933;28;20399;-83
2021/12/30 01:35:58;;;;;;;0.40;0.40;;;;;;;11.55;100.00;99405.94;5025373;28;20044;-84
2021/12/30 01:38:24;;;;;;;0.40;0.40;;;;;;;11.68;100.00;99413.09;5023506;28;20108;-84
2021/12/30 01:40:51;;;;;;;0.85;0.70;;;;;;;11.71;100.00;99420.75;5004483;28;20533;-83
2021/12/30 01:43:19;;;;;;;0.50;0.50;;;;;;;11.69;100.00;99420.13;4988193;28;20048;-84
2021/12/30 01:45:45;;;;;;;0.50;0.50;;;;;;;11.66;100.00;99422.22;5020887;28;20041;-84
2021/12/30 01:48:11;;;;;;;0.30;0.30;;;;;;;11.68;100.00;99422.00;5022512;28;20120;-84
2021/12/30 01:50:38;;;;;;;0.45;0.45;;;;;;;11.69;100.00;99425.53;5030484;28;20663;-83
2021/12/30 01:53:07;;;;;;;0.50;0.50;;;;;;;11.67;100.00;99425.75;5011477;28;20037;-84
2021/12/30 01:55:36;;;;;;;0.47;0.47;;;;;;;11.68;100.00;99438.16;5003304;28;20040;-83
2021/12/30 01:58:03;;;;;;;0.50;0.50;;;;;;;11.57;100.00;99420.00;5004380;28;20119;-83
2021/12/30 02:00:30;;;;;;;0.40;0.40;;;;;;;11.65;100.00;99431.34;5029388;28;20041;-83
2021/12/30 02:02:56;;;;;;;0.40;0.40;;;;;;;11.67;100.00;99439.22;5027728;28;20388;-82
2021/12/30 02:05:21;;;;;;;0.40;0.40;;;;;;;11.64;100.00;99431.53;5021638;28;20044;-83
2021/12/30 02:07:47;;;;;;;0.40;0.40;;;;;;;11.65;100.00;99435.91;5026135;28;20084;-82
2021/12/30 02:10:14;;;;;;;0.50;0.50;;;;;;;11.64;100.00;99437.78;4988473;28;20161;-82
2021/12/30 02:12:41;;;;;;;0.40;0.40;;;;;;;11.63;100.00;99444.19;5019978;28;20036;-83
2021/12/30 02:15:10;;;;;;;0.50;0.50;;;;;;;11.65;100.00;99454.75;5011729;28;20037;-84
2021/12/30 02:17:36;;;;;;;0.40;0.40;;;;;;;11.62;100.00;99447.09;5020383;28;20037;-83
2021/12/30 02:20:04;;;;;;;0.50;0.50;;;;;;;11.65;100.00;99446.69;5006838;28;20080;-83
2021/12/30 02:22:30;;;;;;;0.40;0.40;;;;;;;11.65;100.00;99446.69;5028701;28;20116;-83
2021/12/30 02:24:58;;;;;;;0.43;0.43;;;;;;;11.63;100.00;99444.19;5020216;28;20044;-84
2021/12/30 02:27:23;;;;;;;0.40;0.40;;;;;;;11.66;100.00;99459.09;5025003;28;20415;-83
2021/12/30 02:29:49;;;;;;;0.40;0.40;;;;;;;11.64;100.00;99463.84;5023029;28;20497;-81
2021/12/30 02:32:15;;;;;;;0.40;0.40;;;;;;;11.65;100.00;99476.28;5019327;28;20175;-83
2021/12/30 02:34:41;;;;;;;0.40;0.40;;;;;;;11.58;100.00;99464.72;5022124;28;20037;-84
2021/12/30 02:37:07;;;;;;;0.85;0.50;;;;;;;11.62;100.00;99479.41;5023409;28;20053;-82
2021/12/30 02:39:33;;;;;;;0.40;0.40;;;;;;;11.60;100.00;99481.50;4990957;28;20045;-83
2021/12/30 02:41:59;;;;;;;0.45;0.45;;;;;;;11.59;100.00;99491.44;4993418;28;20140;-83
2021/12/30 02:44:25;;;;;;;0.43;0.43;;;;;;;11.53;100.00;99473.44;5026465;28;20033;-83
2021/12/30 02:46:53;;;;;;;0.55;0.55;;;;;;;11.62;100.00;99498.25;5003227;28;20037;-83
2021/12/30 02:49:18;;;;;;;0.40;0.40;;;;;;;11.64;100.00;99502.41;5027118;28;20028;-85
2021/12/30 02:51:46;;;;;;;0.40;0.40;;;;;;;11.65;100.00;99501.34;5020371;28;20053;-83
2021/12/30 02:54:12;;;;;;;0.40;0.40;;;;;;;11.64;100.00;99497.00;5019644;28;20467;-83
2021/12/30 02:56:38;;;;;;;0.52;0.52;;;;;;;11.77;100.00;99501.47;5013384;28;20029;-83
2021/12/30 02:59:04;;;;;;;0.50;0.50;;;;;;;11.82;100.00;99515.13;5019624;28;20037;-83
2021/12/30 03:01:34;;;;;;;1.02;0.60;;;;;;;11.86;100.00;99508.31;5037374;28;20481;-83
2021/12/30 03:04:05;;;;;;;0.40;0.40;;;;;;;11.91;100.00;99523.00;5022166;28;20210;-83
2021/12/30 03:06:32;;;;;;;0.52;0.52;;;;;;;11.96;100.00;99510.56;5020609;28;20115;-83
2021/12/30 03:08:59;;;;;;;0.50;0.50;;;;;;;11.94;100.00;99534.19;5009247;28;20025;-84
2021/12/30 03:11:25;;;;;;;0.50;0.50;;;;;;;11.96;100.00;99542.03;4988082;28;20459;-84
2021/12/30 03:13:53;;;;;;;0.40;0.40;;;;;;;11.96;100.00;99542.03;5010691;28;20037;-84
2021/12/30 03:16:25;;;;;;;0.55;0.50;;;;;;;11.95;100.00;99551.19;5020899;28;20487;-83
2021/12/30 03:18:52;;;;;;;1.48;0.50;;;;;;;11.96;100.00;99552.81;5023218;28;20040;-84
2021/12/30 03:21:20;;;;;;;1.23;0.60;;;;;;;11.93;100.00;99547.84;5019814;28;20031;-84
2021/12/30 03:23:46;;;;;;;0.57;0.50;;;;;;;11.90;100.00;99564.44;5015164;28;20026;-83
2021/12/30 03:26:12;;;;;;;1.33;0.50;;;;;;;11.92;100.00;99581.25;5019864;28;20387;-82
2021/12/30 03:28:42;;;;;;;1.50;0.80;;;;;;;11.88;100.00;99575.44;5015565;28;20036;-83
2021/12/30 03:31:09;;;;;;;0.40;0.40;;;;;;;11.93;100.00;99602.56;5021052;28;20029;-84
2021/12/30 03:33:35;;;;;;;0.50;0.50;;;;;;;11.91;100.00;99603.81;5021217;28;20044;-83
2021/12/30 03:36:03;;;;;;;0.68;0.50;;;;;;;11.90;100.00;99612.94;5023770;28;20502;-83
2021/12/30 03:38:29;;;;;;;0.40;0.40;;;;;;;11.82;100.00;99595.94;5024412;28;20072;-82
2021/12/30 03:40:55;;;;;;;0.50;0.50;;;;;;;11.86;100.00;99621.44;5017388;28;20376;-83
2021/12/30 03:43:21;;;;;;;0.63;0.63;;;;;;;11.84;100.00;99614.59;5021496;28;20044;-83
2021/12/30 03:45:46;;;;;;;0.40;0.40;;;;;;;11.82;100.00;99617.47;5028463;28;20455;-83
2021/12/30 03:48:12;;;;;;;0.40;0.40;;;;;;;11.83;100.00;99627.22;5007383;28;20044;-83
2021/12/30 03:50:44;;;;;;;0.43;0.43;;;;;;;11.77;100.00;99627.25;5025495;28;20498;-84
2021/12/30 03:53:14;;;;;;;0.40;0.40;;;;;;;11.78;100.00;99635.13;5009952;28;20865;-83
2021/12/30 03:55:41;;;;;;;0.50;0.50;;;;;;;11.70;100.00;99623.75;5030178;28;20036;-84
2021/12/30 03:58:07;;;;;;;0.50;0.50;;;;;;;11.69;100.00;99630.16;5031308;28;20097;-84
2021/12/30 04:00:34;;;;;;;0.50;0.50;;;;;;;11.68;100.00;99642.81;5029892;28;20183;-84
2021/12/30 04:03:00;;;;;;;0.60;0.60;;;;;;;11.59;100.00;99626.06;4993291;28;20029;-84
2021/12/30 04:05:26;;;;;;;0.40;0.40;;;;;;;11.53;100.00;99632.25;5007953;28;20399;-83
2021/12/30 04:07:52;;;;;;;0.40;0.40;;;;;;;11.54;100.00;99639.31;5022875;28;20463;-84
2021/12/30 04:10:23;;;;;;;0.50;0.50;;;;;;;11.48;100.00;99607.00;5023326;28;20142;-83
2021/12/30 04:12:51;;;;;;;0.50;0.50;;;;;;;11.53;100.00;99628.75;5027246;28;20067;-84
2021/12/30 04:15:17;;;;;;;0.40;0.40;;;;;;;11.51;100.00;99633.50;5023757;28;20154;-85
2021/12/30 04:17:43;;;;;;;0.55;0.55;;;;;;;11.50;100.00;99623.78;5026924;28;20060;-83
2021/12/30 04:20:11;;;;;;;0.50;0.50;;;;;;;11.48;100.00;99610.53;5023653;28;20065;-82
2021/12/30 04:22:38;;;;;;;0.80;0.80;;;;;;;11.49;100.00;99632.91;5006189;28;20025;-84
2021/12/30 04:25:06;;;;;;;0.40;0.40;;;;;;;11.39;100.00;99611.78;5014447;28;20068;-84
2021/12/30 04:27:31;;;;;;;0.57;0.57;;;;;;;11.40;100.00;99614.25;4990306;28;20033;-83
2021/12/30 04:29:57;;;;;;;0.40;0.40;;;;;;;11.39;100.00;99628.75;5020928;28;20032;-84
2021/12/30 04:32:22;;;;;;;0.50;0.50;;;;;;;11.40;100.00;99643.84;5004581;28;20033;-83
2021/12/30 04:34:48;;;;;;;0.50;0.50;;;;;;;11.40;100.00;99649.25;5018309;28;20037;-84
2021/12/30 04:37:14;;;;;;;0.40;0.40;;;;;;;11.41;100.00;99644.72;5033057;28;20044;-83
2021/12/30 04:39:39;;;;;;;0.40;0.40;;;;;;;11.38;100.00;99654.03;5027908;28;20091;-84
2021/12/30 04:42:05;;;;;;;0.40;0.40;;;;;;;11.39;100.00;99652.16;5027687;28;20041;-84
2021/12/30 04:44:31;;;;;;;0.40;0.40;;;;;;;11.38;100.00;99654.03;5008912;28;20029;-83
2021/12/30 04:46:57;;;;;;;0.45;0.45;;;;;;;11.38;100.00;99658.59;5021385;28;20037;-83
2021/12/30 04:49:24;;;;;;;0.45;0.45;;;;;;;11.32;100.00;99644.06;5023526;28;20032;-84
2021/12/30 04:51:50;;;;;;;0.50;0.50;;;;;;;11.32;100.00;99638.69;5022981;28;20037;-84
2021/12/30 04:54:16;;;;;;;0.40;0.40;;;;;;;11.28;100.00;99640.16;5024698;28;20435;-83
2021/12/30 04:56:41;;;;;;;3.50;1.65;;;;;;;11.36;100.00;99660.66;5021750;28;20041;-84
2021/12/30 04:59:07;;;;;;;0.50;0.50;;;;;;;11.32;100.00;99654.84;4996781;28;20468;-83
2021/12/30 05:01:33;;;;;;;0.40;0.40;;;;;;;11.32;100.00;99665.59;5023221;28;20491;-84
2021/12/30 05:03:58;;;;;;;0.50;0.50;;;;;;;11.33;100.00;99661.91;4995853;28;20064;-83
2021/12/30 05:06:24;;;;;;;0.50;0.50;;;;;;;11.31;100.00;99663.97;5028275;28;20041;-82
2021/12/30 05:08:50;;;;;;;0.95;0.60;;;;;;;11.26;100.00;99673.69;4992274;28;20052;-83
2021/12/30 05:11:15;;;;;;;0.60;0.60;;;;;;;11.26;100.00;99682.59;4994068;28;20029;-84
2021/12/30 05:13:41;;;;;;;0.50;0.50;;;;;;;11.25;100.00;99691.72;5011396;28;20415;-84
2021/12/30 05:16:07;;;;;;;0.50;0.50;;;;;;;11.14;100.00;99658.19;5022693;28;20113;-83
2021/12/30 05:18:33;;;;;;;0.88;0.88;;;;;;;11.25;100.00;99680.94;5019030;28;20468;-83
2021/12/30 05:21:02;;;;;;;0.40;0.40;;;;;;;11.25;100.00;99691.72;5023302;28;20078;-84
2021/12/30 05:23:28;;;;;;;0.50;0.50;;;;;;;11.16;100.00;99677.59;5022287;28;20037;-84
2021/12/30 05:25:55;;;;;;;0.40;0.40;;;;;;;11.20;100.00;99695.00;4993402;28;20373;-84
2021/12/30 05:28:20;;;;;;;0.50;0.50;;;;;;;11.20;100.00;99675.34;5021413;28;20037;-84
2021/12/30 05:30:46;;;;;;;0.43;0.43;;;;;;;11.23;100.00;99677.63;5007707;28;20493;-84
2021/12/30 05:33:12;;;;;;;0.63;0.63;;;;;;;11.16;100.00;99661.47;5017150;28;20099;-83
2021/12/30 05:35:38;;;;;;;0.60;0.60;;;;;;;11.18;100.00;99674.72;5061819;28;20030;-82
2021/12/30 05:38:04;;;;;;;0.88;0.88;;;;;;;11.21;100.00;99685.88;5030901;28;20476;-84
2021/12/30 05:40:30;;;;;;;2.42;0.57;;;;;;;11.21;100.00;99693.97;5007253;28;20616;-84
2021/12/30 05:42:56;;;;;;;0.43;0.43;;;;;;;11.23;100.00;99699.97;5028401;28;20121;-84
2021/12/30 05:45:22;;;;;;;0.50;0.50;;;;;;;11.23;100.00;99697.28;5028270;28;20470;-85
2021/12/30 05:47:49;;;;;;;0.50;0.50;;;;;;;11.25;100.00;99699.78;5027436;28;20045;-84
2021/12/30 05:50:18;;;;;;;0.40;0.40;;;;;;;11.23;100.00;99691.06;5005647;28;20037;-84
2021/12/30 05:52:44;;;;;;;0.40;0.40;;;;;;;11.17;100.00;99690.03;5029438;28;20033;-84
2021/12/30 05:55:11;;;;;;;0.40;0.40;;;;;;;11.17;100.00;99692.72;4995452;28;20044;-84
2021/12/30 05:57:37;;;;;;;0.40;0.40;;;;;;;11.19;100.00;99679.91;5010692;28;20040;-83
2021/12/30 06:00:05;;;;;;;0.40;0.40;;;;;;;11.22;100.00;99682.19;5029533;28;20036;-85
2021/12/30 06:02:31;;;;;;;0.40;0.40;;;;;;;11.23;100.00;99677.63;5016348;28;20033;-83
2021/12/30 06:04:57;;;;;;;0.40;0.40;;;;;;;11.28;100.00;99688.59;5013160;28;20025;-84
2021/12/30 06:07:22;;;;;;;0.40;0.40;;;;;;;11.25;100.00;99689.00;5021086;28;20030;-83
2021/12/30 06:09:48;;;;;;;0.40;0.40;;;;;;;11.25;100.00;99697.09;4994266;28;20049;-83
2021/12/30 06:12:14;;;;;;;0.43;0.43;;;;;;;11.19;100.00;99689.81;4986274;28;20045;-85
2021/12/30 06:14:40;;;;;;;0.40;0.40;;;;;;;11.16;100.00;99682.97;5021717;28;20036;-84
2021/12/30 06:17:05;;;;;;;0.70;0.70;;;;;;;11.12;100.00;99676.38;5023154;28;20913;-86
2021/12/30 06:19:31;;;;;;;0.45;0.45;;;;;;;11.25;100.00;99678.25;5023746;28;20468;-83
2021/12/30 06:21:56;;;;;;;0.60;0.60;;;;;;;11.26;100.00;99684.47;5020501;28;20069;-84
2021/12/30 06:24:22;;;;;;;0.40;0.40;;;;;;;11.27;100.00;99673.47;4988883;28;20059;-84
2021/12/30 06:26:48;;;;;;;0.40;0.40;;;;;;;11.26;100.00;99681.75;5021826;28;20394;-83
2021/12/30 06:29:14;;;;;;;0.50;0.50;;;;;;;11.29;100.00;99690.25;5013728;28;20040;-84
2021/12/30 06:31:41;;;;;;;0.40;0.40;;;;;;;11.30;100.00;99691.91;5022605;28;20034;-86
2021/12/30 06:34:07;;;;;;;0.40;0.40;;;;;;;11.25;100.00;99697.09;5027975;28;20150;-85
2021/12/30 06:36:32;;;;;;;0.40;0.40;;;;;;;11.24;100.00;99700.78;5011484;28;20057;-83
2021/12/30 06:38:58;;;;;;;0.50;0.50;;;;;;;11.27;100.00;99708.44;5035996;28;20045;-84
2021/12/30 06:41:24;;;;;;;0.40;0.40;;;;;;;11.29;100.00;99717.16;5007766;28;20127;-82
2021/12/30 06:43:49;;;;;;;0.40;0.40;;;;;;;11.29;100.00;99706.38;5003028;28;20605;-86
2021/12/30 06:46:19;;;;;;;0.40;0.40;;;;;;;11.31;100.00;99698.13;5014934;28;20038;-84
2021/12/30 06:48:45;;;;;;;0.45;0.45;;;;;;;11.27;100.00;99703.06;5038738;28;20032;-84
2021/12/30 06:51:13;;;;;;;0.40;0.40;;;;;;;11.28;100.00;99712.00;5019375;28;20033;-84
2021/12/30 06:53:39;;;;;;;0.40;0.40;;;;;;;11.16;100.00;99701.00;5021396;28;20099;-83
2021/12/30 06:56:04;;;;;;;0.40;0.40;;;;;;;11.15;100.00;99712.81;5032844;28;20380;-83
2021/12/30 06:58:30;;;;;;;0.40;0.40;;;;;;;11.12;100.00;99705.16;5020924;28;20033;-84
2021/12/30 07:00:57;;;;;;;0.40;0.40;;;;;;;11.17;100.00;99710.75;5021563;28;20033;-83
2021/12/30 07:03:23;;;;;;;0.40;0.40;;;;;;;11.24;100.00;99711.56;5026872;28;20033;-83
2021/12/30 07:05:51;;;;;;;0.40;0.40;;;;;;;11.27;100.00;99703.06;5038719;28;20395;-83
2021/12/30 07:08:17;;;;;;;0.40;0.40;;;;;;;11.28;100.00;99709.31;5023185;28;20480;-83
2021/12/30 07:10:45;;;;;;;0.40;0.40;;;;;;;11.33;100.00;99715.72;5028081;28;20038;-84
2021/12/30 07:13:10;;;;;;;0.40;0.40;;;;;;;11.31;100.00;99708.88;5023149;28;20044;-84
2021/12/30 07:15:36;;;;;;;0.40;0.40;;;;;;;11.26;100.00;99712.19;5012208;28;20030;-84
2021/12/30 07:18:02;;;;;;;0.50;0.50;;;;;;;11.25;100.00;99707.03;5029328;28;20468;-83
2021/12/30 07:20:28;;;;;;;0.40;0.40;;;;;;;11.16;100.00;99687.53;5028094;28;20038;-84
2021/12/30 07:22:53;;;;;;;0.40;0.40;;;;;;;11.18;100.00;99709.69;5045150;28;20402;-84
2021/12/30 07:25:19;;;;;;;0.40;0.40;;;;;;;11.14;100.00;99709.28;4996397;28;20061;-84
2021/12/30 07:27:46;;;;;;;0.70;0.70;;;;;;;11.08;100.00;99714.66;5013481;28;20041;-83
2021/12/30 07:30:12;;;;;;;0.40;0.40;;;;;;;10.99;100.00;99722.09;5009559;28;20467;-84
2021/12/30 07:32:38;;;;;;;0.40;0.40;;;;;;;10.98;100.00;99740.09;5006438;28;20037;-84
2021/12/30 07:35:04;;;;;;;0.45;0.45;;;;;;;11.03;100.00;99726.00;5027656;28;20037;-84
2021/12/30 07:37:30;;;;;;;0.40;0.40;;;;;;;11.10;100.00;99736.81;5030041;28;20051;-84
2021/12/30 07:39:55;;;;;;;0.50;0.50;;;;;;;11.18;100.00;99731.22;5024087;28;20033;-84
2021/12/30 07:42:21;;;;;;;0.50;0.50;;;;;;;11.19;100.00;99716.72;5003511;28;20084;-83
2021/12/30 07:44:47;;;;;;;0.50;0.50;;;;;;;11.20;100.00;99726.47;5009425;28;20451;-84
2021/12/30 07:47:12;;;;;;;0.43;0.43;;;;;;;11.19;100.00;99728.34;5011331;28;20034;-83
2021/12/30 07:49:38;;;;;;;0.40;0.40;;;;;;;11.18;100.00;99725.84;5036665;28;20035;-85
2021/12/30 07:52:05;;;;;;;0.40;0.40;;;;;;;11.13;100.00;99714.88;5022310;28;20056;-83
2021/12/30 07:54:31;;;;;;;0.40;0.40;;;;;;;11.17;100.00;99721.50;5018149;28;20021;-83
2021/12/30 07:56:57;;;;;;;0.40;0.40;;;;;;;11.21;100.00;99731.63;5029413;28;20049;-85
2021/12/30 07:59:22;;;;;;;0.45;0.45;;;;;;;11.23;100.00;99736.81;5032784;28;20041;-83
2021/12/30 08:01:48;;;;;;;0.40;0.40;;;;;;;11.16;100.00;99720.66;5024244;28;20048;-83
2021/12/30 08:04:14;;;;;;;0.55;0.55;;;;;;;11.19;100.00;99736.41;5008601;28;20029;-84
2021/12/30 08:06:39;;;;;;;0.50;0.50;;;;;;;11.17;100.00;99732.28;5008594;28;20113;-83
2021/12/30 08:09:06;;;;;;;0.40;0.40;;;;;;;11.20;100.00;99739.94;4989566;28;20160;-83
2021/12/30 08:11:33;;;;;;;0.50;0.50;;;;;;;11.21;100.00;99741.56;5014104;28;20423;-83
2021/12/30 08:14:02;;;;;;;0.75;0.75;;;;;;;11.13;100.00;99731.00;5020266;28;20030;-83
2021/12/30 08:16:29;;;;;;;0.50;0.50;;;;;;;11.20;100.00;99753.38;5019435;28;20047;-84
2021/12/30 08:18:55;;;;;;;0.45;0.45;;;;;;;11.10;100.00;99752.94;5018972;28;20061;-84
2021/12/30 08:21:22;;;;;;;0.40;0.40;;;;;;;11.13;100.00;99763.28;5027207;28;20037;-84
2021/12/30 08:23:49;;;;;;;0.50;0.50;;;;;;;11.06;100.00;99765.13;5059081;28;20026;-83
2021/12/30 08:26:14;;;;;;;1.10;1.02;;;;;;;11.03;100.00;99777.13;5030847;28;20112;-83
2021/12/30 08:28:40;;;;;;;0.60;0.60;;;;;;;11.00;100.00;99782.91;5029683;28;20428;-83
2021/12/30 08:31:07;;;;;;;0.40;0.40;;;;;;;10.93;100.00;99774.03;5014319;28;20036;-83
2021/12/30 08:33:33;;;;;;;0.40;0.40;;;;;;;10.96;100.00;99777.13;5029034;28;20041;-84
2021/12/30 08:35:58;;;;;;;0.40;0.40;;;;;;;10.98;100.00;99788.50;4997662;28;20039;-83
2021/12/30 08:38:24;;;;;;;0.50;0.50;;;;;;;10.95;100.00;99782.69;4997894;28;20033;-83
2021/12/30 08:40:50;;;;;;;0.43;0.43;;;;;;;10.92;100.00;99794.69;4988932;28;20037;-83
2021/12/30 08:43:17;;;;;;;0.50;0.50;;;;;;;10.93;100.00;99793.66;5010440;28;20590;-83
2021/12/30 08:45:44;;;;;;;0.60;0.60;;;;;;;10.94;100.00;99803.38;5037601;28;20128;-83
2021/12/30 08:48:10;;;;;;;0.40;0.40;;;;;;;10.99;100.00;99805.47;5005181;28;20247;-83
2021/12/30 08:50:36;;;;;;;0.40;0.40;;;;;;;11.02;100.00;99809.63;5023363;28;20206;-84
2021/12/30 08:53:01;;;;;;;0.40;0.40;;;;;;;11.00;100.00;99809.81;5022082;28;20033;-84
2021/12/30 08:55:27;;;;;;;0.50;0.50;;;;;;;10.94;100.00;99805.25;4991438;28;20033;-82
2021/12/30 08:57:53;;;;;;;0.80;0.40;;;;;;;10.95;100.00;99807.72;5006664;28;20044;-85
2021/12/30 09:00:23;;;;;;;0.43;0.43;;;;;;;10.91;100.00;99814.53;5004990;28;20025;-84
2021/12/30 09:02:50;;;;;;;0.40;0.40;;;;;;;10.79;100.00;99794.63;5023310;28;20033;-83
2021/12/30 09:05:15;;;;;;;0.40;0.40;;;;;;;10.86;100.00;99810.81;5022305;28;20053;-83
2021/12/30 09:07:42;;;;;;;1.65;0.60;;;;;;;10.79;100.00;99806.22;5008304;28;20064;-82
2021/12/30 09:10:09;;;;;;;0.50;0.50;;;;;;;10.81;100.00;99808.72;5021730;28;20746;-83
2021/12/30 09:12:37;;;;;;;0.77;0.77;;;;;;;10.81;100.00;99816.78;5021905;28;20475;-84
2021/12/30 09:15:05;;;;;;;0.40;0.40;;;;;;;10.79;100.00;99816.97;5018459;28;20468;-84
2021/12/30 09:17:31;;;;;;;0.40;0.40;;;;;;;10.81;100.00;99824.03;5026347;28;20105;-81
2021/12/30 09:19:57;;;;;;;0.40;0.40;;;;;;;10.81;100.00;99832.09;5020614;28;20231;-83
2021/12/30 09:22:25;;;;;;;0.50;0.50;;;;;;;10.75;100.00;99828.34;5011094;28;20095;-83
2021/12/30 09:24:51;;;;;;;0.50;0.50;;;;;;;10.74;100.00;99824.84;4996464;28;20542;-85
2021/12/30 09:27:16;;;;;;;0.45;0.45;;;;;;;10.78;100.00;99833.31;5029336;28;20025;-83
2021/12/30 09:29:42;;;;;;;0.50;0.50;;;;;;;10.78;100.00;99831.44;4995538;28;20040;-85
2021/12/30 09:32:08;;;;;;;0.65;0.65;;;;;;;10.80;100.00;99825.88;5028775;28;20037;-83
2021/12/30 09:34:33;;;;;;;0.40;0.40;;;;;;;10.81;100.00;99829.41;5025099;28;20084;-84
2021/12/30 09:36:59;;;;;;;0.60;0.60;;;;;;;10.77;100.00;99821.75;5011532;28;20083;-83
2021/12/30 09:39:25;;;;;;;1.77;1.67;;;;;;;10.84;100.00;99832.50;4983724;28;20065;-83
2021/12/30 09:41:50;;;;;;;0.60;0.60;;;;;;;10.83;100.00;99824.66;5012192;28;20049;-83
2021/12/30 09:44:18;;;;;;;0.88;0.88;;;;;;;10.83;100.00;99824.66;5009727;28;20029;-83
2021/12/30 09:46:45;;;;;;;1.02;1.02;;;;;;;10.82;100.00;99822.97;5028192;28;20120;-85
2021/12/30 09:49:14;;;;;;;0.50;0.50;;;;;;;10.80;100.00;99823.19;5013077;28;20037;-85
2021/12/30 09:51:42;;;;;;;0.40;0.40;;;;;;;10.79;100.00;99813.44;5030176;28;20464;-84
2021/12/30 09:54:10;;;;;;;0.52;0.52;;;;;;;10.76;100.00;99817.38;4994576;28;20500;-84
2021/12/30 09:56:36;;;;;;;2.58;2.38;;;;;;;10.68;100.00;99789.84;5029387;28;20063;-84
2021/12/30 09:59:02;;;;;;;0.60;0.60;;;;;;;10.84;100.00;99827.13;5013995;28;20038;-85
2021/12/30 10:01:28;;;;;;;1.48;0.60;;;;;;;10.86;100.00;99822.38;5030702;28;20034;-84
2021/12/30 10:03:56;;;;;;;1.95;1.85;;;;;;;10.87;100.00;99818.66;5031008;28;20395;-84
2021/12/30 10:06:22;;;;;;;2.42;1.48;;;;;;;10.89;100.00;99815.78;5030021;28;20069;-84
2021/12/30 10:09:06;;;;;;;0.40;0.40;;;;;;;10.88;100.00;99814.13;5013907;28;20447;-84
2021/12/30 10:11:49;;;;;;;0.75;0.75;;;;;;;10.87;100.00;99799.00;5020421;28;20061;-84
2021/12/30 10:14:36;;;;;;;0.60;0.60;;;;;;;10.94;100.00;99814.13;5030897;28;20471;-84
2021/12/30 10:17:26;;;;;;;0.93;0.88;;;;;;;11.00;100.00;99817.88;5029814;28;20040;-84
2021/12/30 10:19:54;;;;;;;0.50;0.50;;;;;;;10.86;100.00;99789.28;5013376;28;20497;-82
2021/12/30 10:22:25;;;;;;;1.23;0.60;;;;;;;10.87;100.00;99801.69;5024087;28;20034;-81
2021/12/30 10:24:51;;;;;;;0.50;0.50;;;;;;;11.05;100.00;99830.72;5046027;28;20039;-81
2021/12/30 10:27:29;;;;;;;0.50;0.50;;;;;;;11.03;100.00;99832.78;5027094;28;20037;-84
2021/12/30 10:29:56;;;;;;;0.50;0.50;;;;;;;11.02;100.00;99837.34;5044700;28;20068;-81
2021/12/30 10:32:28;;;;;;;0.40;0.40;;;;;;;11.06;100.00;99838.63;5027459;28;20080;-81
2021/12/30 10:35:14;;;;;;;0.70;0.70;;;;;;;11.09;100.00;99840.06;4993239;28;20032;-83
2021/12/30 10:37:45;;;;;;;0.40;0.40;;;;;;;10.91;100.00;99814.53;5034838;28;20080;-81
2021/12/30 10:40:31;;;;;;;0.50;0.50;;;;;;;11.11;100.00;99849.56;4991371;28;20041;-80
2021/12/30 10:43:30;;;;;;;0.80;0.80;;;;;;;11.11;100.00;99851.44;5023843;28;20033;-81
2021/12/30 10:46:08;;;;;;;1.52;1.42;;;;;;;11.04;100.00;99847.91;5024549;28;20033;-83
2021/12/30 10:48:44;;;;;;;0.40;0.40;;;;;;;11.10;100.00;99858.69;5004205;28;20373;-81
2021/12/30 10:51:12;;;;;;;1.20;0.80;;;;;;;11.14;100.00;99856.41;4994328;28;20037;-81
2021/12/30 10:53:38;;;;;;;0.40;0.40;;;;;;;11.19;100.00;99862.03;5008195;28;20488;-83
2021/12/30 10:56:23;;;;;;;0.50;0.50;;;;;;;11.31;100.00;99871.19;5011242;28;20035;-83
2021/12/30 10:58:50;;;;;;;0.43;0.43;;;;;;;11.09;100.00;99818.56;4993870;28;20041;-81
2021/12/30 11:01:18;;;;;;;0.40;0.40;;;;;;;11.31;100.00;99846.97;5028448;28;20025;-81
2021/12/30 11:03:56;;;;;;;0.40;0.40;;;;;;;11.29;100.00;99840.94;5023534;28;20060;-82
2021/12/30 11:06:22;;;;;;;0.43;0.43;;;;;;;11.42;100.00;99857.13;5042047;28;20127;-82
2021/12/30 11:09:04;;;;;;;5.97;2.70;;;;;;;11.36;100.00;99841.81;4986094;28;20103;-82
2021/12/30 11:11:30;;;;;;;1.67;1.65;;;;;;;11.39;100.00;99838.69;5039605;28;20070;-81
2021/12/30 11:14:02;;;;;;;2.22;2.03;;;;;;;11.47;100.00;99843.06;5013285;28;20049;-82
2021/12/30 11:16:28;;;;;;;1.27;1.05;;;;;;;11.50;100.00;99849.91;5005000;28;20049;-82
2021/12/30 11:18:56;;;;;;;1.05;1.05;;;;;;;11.51;100.00;99847.03;5006675;28;20392;-80
2021/12/30 11:21:35;;;;;;;0.80;0.80;;;;;;;11.55;100.00;99847.44;5026804;28;20041;-81
2021/12/30 11:24:02;;;;;;;0.50;0.50;;;;;;;11.52;100.00;99839.78;5027268;28;20056;-82
2021/12/30 11:26:28;;;;;;;2.72;1.88;;;;;;;11.56;100.00;99841.81;5027610;28;20034;-82